sensor_id;sensor_type;location;lat;lon;timestamp;P1;durP1;ratioP1;P2;durP2;ratioP2
47025;SDS011;32783;51.756;-2.556;2023-04-15T00:00:08;0.60;;;0.60;;
47025;SDS011;32783;51.756;-2.556;2023-04-15T00:02:34;0.73;;;0.40;;
47025;SDS011;32783;51.756;-2.556;2023-04-15T00:05:00;0.93;;;0.43;;
47025;SDS011;32783;51.756;-2.556;2023-04-15T00:07:25;0.98;;;0.63;;
47025;SDS011;32783;51.756;-2.556;2023-04-15T00:09:50;0.40;;;0.30;;
47025;SDS011;32783;51.756;-2.556;2023-04-15T00:12:19;0.70;;;0.50;;
47025;SDS011;32783;51.756;-2.556;2023-04-15T00:14:45;1.90;;;0.70;;
47025;SDS011;32783;51.756;-2.556;2023-04-15T00:17:11;1.55;;;0.40;;
47025;SDS011;32783;51.756;-2.556;2023-04-15T00:19:36;0.52;;;0.40;;
47025;SDS011;32783;51.756;-2.556;2023-04-15T00:22:02;1.80;;;0.98;;
47025;SDS011;32783;51.756;-2.556;2023-04-15T00:24:27;0.80;;;0.50;;
47025;SDS011;32783;51.756;-2.556;2023-04-15T00:26:53;0.80;;;0.40;;
47025;SDS011;32783;51.756;-2.556;2023-04-15T00:29:18;0.75;;;0.45;;
47025;SDS011;32783;51.756;-2.556;2023-04-15T00:31:44;0.40;;;0.38;;
47025;SDS011;32783;51.756;-2.556;2023-04-15T00:34:10;0.70;;;0.60;;
47025;SDS011;32783;51.756;-2.556;2023-04-15T00:36:35;0.65;;;0.52;;
47025;SDS011;32783;51.756;-2.556;2023-04-15T00:39:00;0.65;;;0.43;;
47025;SDS011;32783;51.756;-2.556;2023-04-15T00:41:27;0.65;;;0.45;;
47025;SDS011;32783;51.756;-2.556;2023-04-15T00:43:52;0.50;;;0.50;;
47025;SDS011;32783;51.756;-2.556;2023-04-15T00:46:18;0.40;;;0.40;;
47025;SDS011;32783;51.756;-2.556;2023-04-15T00:48:45;0.50;;;0.40;;
47025;SDS011;32783;51.756;-2.556;2023-04-15T00:51:11;0.70;;;0.43;;
47025;SDS011;32783;51.756;-2.556;2023-04-15T00:53:37;0.40;;;0.40;;
47025;SDS011;32783;51.756;-2.556;2023-04-15T00:56:02;1.38;;;0.50;;
47025;SDS011;32783;51.756;-2.556;2023-04-15T00:58:28;0.60;;;0.45;;
47025;SDS011;32783;51.756;-2.556;2023-04-15T01:00:55;0.32;;;0.32;;
47025;SDS011;32783;51.756;-2.556;2023-04-15T01:03:21;0.93;;;0.40;;
47025;SDS011;32783;51.756;-2.556;2023-04-15T01:05:46;0.40;;;0.30;;
47025;SDS011;32783;51.756;-2.556;2023-04-15T01:08:12;0.40;;;0.30;;
47025;SDS011;32783;51.756;-2.556;2023-04-15T01:10:37;0.52;;;0.30;;
47025;SDS011;32783;51.756;-2.556;2023-04-15T01:13:03;0.35;;;0.30;;
47025;SDS011;32783;51.756;-2.556;2023-04-15T01:15:29;0.57;;;0.47;;
47025;SDS011;32783;51.756;-2.556;2023-04-15T01:17:56;0.60;;;0.50;;
47025;SDS011;32783;51.756;-2.556;2023-04-15T01:20:24;0.90;;;0.60;;
47025;SDS011;32783;51.756;-2.556;2023-04-15T01:22:50;0.50;;;0.30;;
47025;SDS011;32783;51.756;-2.556;2023-04-15T01:25:17;0.43;;;0.40;;
47025;SDS011;32783;51.756;-2.556;2023-04-15T01:27:43;0.75;;;0.50;;
47025;SDS011;32783;51.756;-2.556;2023-04-15T01:30:09;0.40;;;0.40;;
47025;SDS011;32783;51.756;-2.556;2023-04-15T01:32:35;0.28;;;0.28;;
47025;SDS011;32783;51.756;-2.556;2023-04-15T01:35:01;0.50;;;0.32;;
47025;SDS011;32783;51.756;-2.556;2023-04-15T01:37:27;0.35;;;0.28;;
47025;SDS011;32783;51.756;-2.556;2023-04-15T01:39:52;0.40;;;0.30;;
47025;SDS011;32783;51.756;-2.556;2023-04-15T01:42:18;0.52;;;0.38;;
47025;SDS011;32783;51.756;-2.556;2023-04-15T01:44:45;0.40;;;0.38;;
47025;SDS011;32783;51.756;-2.556;2023-04-15T01:47:10;0.40;;;0.40;;
47025;SDS011;32783;51.756;-2.556;2023-04-15T01:49:36;0.50;;;0.40;;
47025;SDS011;32783;51.756;-2.556;2023-04-15T01:52:01;0.43;;;0.25;;
47025;SDS011;32783;51.756;-2.556;2023-04-15T01:54:27;0.55;;;0.30;;
47025;SDS011;32783;51.756;-2.556;2023-04-15T01:56:52;0.52;;;0.30;;
47025;SDS011;32783;51.756;-2.556;2023-04-15T01:59:18;0.40;;;0.40;;
47025;SDS011;32783;51.756;-2.556;2023-04-15T02:01:43;0.65;;;0.40;;
47025;SDS011;32783;51.756;-2.556;2023-04-15T02:04:09;0.40;;;0.32;;
47025;SDS011;32783;51.756;-2.556;2023-04-15T02:06:41;1.00;;;0.52;;
47025;SDS011;32783;51.756;-2.556;2023-04-15T02:09:07;3.30;;;0.50;;
47025;SDS011;32783;51.756;-2.556;2023-04-15T02:11:33;0.35;;;0.35;;
47025;SDS011;32783;51.756;-2.556;2023-04-15T02:13:59;0.80;;;0.55;;
47025;SDS011;32783;51.756;-2.556;2023-04-15T02:16:24;0.82;;;0.60;;
47025;SDS011;32783;51.756;-2.556;2023-04-15T02:18:50;0.60;;;0.47;;
47025;SDS011;32783;51.756;-2.556;2023-04-15T02:21:16;0.55;;;0.50;;
47025;SDS011;32783;51.756;-2.556;2023-04-15T02:23:42;0.60;;;0.50;;
47025;SDS011;32783;51.756;-2.556;2023-04-15T02:26:08;0.52;;;0.50;;
47025;SDS011;32783;51.756;-2.556;2023-04-15T02:28:34;0.45;;;0.35;;
47025;SDS011;32783;51.756;-2.556;2023-04-15T02:30:59;0.68;;;0.57;;
47025;SDS011;32783;51.756;-2.556;2023-04-15T02:33:26;0.43;;;0.43;;
47025;SDS011;32783;51.756;-2.556;2023-04-15T02:35:51;0.30;;;0.30;;
47025;SDS011;32783;51.756;-2.556;2023-04-15T02:38:17;0.50;;;0.40;;
47025;SDS011;32783;51.756;-2.556;2023-04-15T02:40:42;0.50;;;0.38;;
47025;SDS011;32783;51.756;-2.556;2023-04-15T02:43:08;0.60;;;0.40;;
47025;SDS011;32783;51.756;-2.556;2023-04-15T02:45:33;0.73;;;0.60;;
47025;SDS011;32783;51.756;-2.556;2023-04-15T02:47:59;0.85;;;0.60;;
47025;SDS011;32783;51.756;-2.556;2023-04-15T02:50:29;0.30;;;0.30;;
47025;SDS011;32783;51.756;-2.556;2023-04-15T02:52:55;1.08;;;0.47;;
47025;SDS011;32783;51.756;-2.556;2023-04-15T02:55:21;0.47;;;0.40;;
47025;SDS011;32783;51.756;-2.556;2023-04-15T02:57:46;0.63;;;0.63;;
47025;SDS011;32783;51.756;-2.556;2023-04-15T03:00:12;0.40;;;0.40;;
47025;SDS011;32783;51.756;-2.556;2023-04-15T03:02:38;0.65;;;0.55;;
47025;SDS011;32783;51.756;-2.556;2023-04-15T03:05:04;0.90;;;0.60;;
47025;SDS011;32783;51.756;-2.556;2023-04-15T03:07:33;0.32;;;0.30;;
47025;SDS011;32783;51.756;-2.556;2023-04-15T03:09:58;0.80;;;0.60;;
47025;SDS011;32783;51.756;-2.556;2023-04-15T03:12:23;0.65;;;0.50;;
47025;SDS011;32783;51.756;-2.556;2023-04-15T03:14:49;0.60;;;0.52;;
47025;SDS011;32783;51.756;-2.556;2023-04-15T03:17:14;0.90;;;0.50;;
47025;SDS011;32783;51.756;-2.556;2023-04-15T03:19:40;0.50;;;0.38;;
47025;SDS011;32783;51.756;-2.556;2023-04-15T03:22:05;0.68;;;0.40;;
47025;SDS011;32783;51.756;-2.556;2023-04-15T03:24:31;1.42;;;0.50;;
47025;SDS011;32783;51.756;-2.556;2023-04-15T03:26:56;0.63;;;0.50;;
47025;SDS011;32783;51.756;-2.556;2023-04-15T03:29:22;0.70;;;0.47;;
47025;SDS011;32783;51.756;-2.556;2023-04-15T03:31:47;0.70;;;0.60;;
47025;SDS011;32783;51.756;-2.556;2023-04-15T03:34:13;1.02;;;0.47;;
47025;SDS011;32783;51.756;-2.556;2023-04-15T03:36:38;0.50;;;0.50;;
47025;SDS011;32783;51.756;-2.556;2023-04-15T03:39:04;0.47;;;0.38;;
47025;SDS011;32783;51.756;-2.556;2023-04-15T03:41:29;0.68;;;0.63;;
47025;SDS011;32783;51.756;-2.556;2023-04-15T03:43:55;0.70;;;0.43;;
47025;SDS011;32783;51.756;-2.556;2023-04-15T03:46:20;0.70;;;0.50;;
47025;SDS011;32783;51.756;-2.556;2023-04-15T03:48:46;0.65;;;0.38;;
47025;SDS011;32783;51.756;-2.556;2023-04-15T03:51:12;0.63;;;0.57;;
47025;SDS011;32783;51.756;-2.556;2023-04-15T03:53:37;0.50;;;0.40;;
47025;SDS011;32783;51.756;-2.556;2023-04-15T03:56:02;0.63;;;0.50;;
47025;SDS011;32783;51.756;-2.556;2023-04-15T03:58:28;0.57;;;0.45;;
47025;SDS011;32783;51.756;-2.556;2023-04-15T04:00:53;0.55;;;0.43;;
47025;SDS011;32783;51.756;-2.556;2023-04-15T04:03:19;0.40;;;0.40;;
47025;SDS011;32783;51.756;-2.556;2023-04-15T04:05:45;0.80;;;0.50;;
47025;SDS011;32783;51.756;-2.556;2023-04-15T04:08:10;0.47;;;0.47;;
47025;SDS011;32783;51.756;-2.556;2023-04-15T04:10:38;0.38;;;0.38;;
47025;SDS011;32783;51.756;-2.556;2023-04-15T04:13:03;0.45;;;0.45;;
47025;SDS011;32783;51.756;-2.556;2023-04-15T04:15:29;0.43;;;0.40;;
47025;SDS011;32783;51.756;-2.556;2023-04-15T04:17:54;0.60;;;0.57;;
47025;SDS011;32783;51.756;-2.556;2023-04-15T04:20:20;1.38;;;0.30;;
47025;SDS011;32783;51.756;-2.556;2023-04-15T04:22:45;0.50;;;0.40;;
47025;SDS011;32783;51.756;-2.556;2023-04-15T04:25:11;0.65;;;0.50;;
47025;SDS011;32783;51.756;-2.556;2023-04-15T04:27:36;0.40;;;0.40;;
47025;SDS011;32783;51.756;-2.556;2023-04-15T04:30:02;0.30;;;0.30;;
47025;SDS011;32783;51.756;-2.556;2023-04-15T04:32:28;0.50;;;0.50;;
47025;SDS011;32783;51.756;-2.556;2023-04-15T04:34:53;0.50;;;0.47;;
47025;SDS011;32783;51.756;-2.556;2023-04-15T04:37:18;0.40;;;0.35;;
47025;SDS011;32783;51.756;-2.556;2023-04-15T04:39:44;0.50;;;0.30;;
47025;SDS011;32783;51.756;-2.556;2023-04-15T04:42:09;0.35;;;0.35;;
47025;SDS011;32783;51.756;-2.556;2023-04-15T04:44:35;0.30;;;0.30;;
47025;SDS011;32783;51.756;-2.556;2023-04-15T04:47:01;0.30;;;0.30;;
47025;SDS011;32783;51.756;-2.556;2023-04-15T04:49:26;0.70;;;0.70;;
47025;SDS011;32783;51.756;-2.556;2023-04-15T04:51:52;0.30;;;0.30;;
47025;SDS011;32783;51.756;-2.556;2023-04-15T04:54:17;0.50;;;0.38;;
47025;SDS011;32783;51.756;-2.556;2023-04-15T04:56:43;0.38;;;0.38;;
47025;SDS011;32783;51.756;-2.556;2023-04-15T04:59:08;0.32;;;0.30;;
47025;SDS011;32783;51.756;-2.556;2023-04-15T05:01:33;0.50;;;0.40;;
47025;SDS011;32783;51.756;-2.556;2023-04-15T05:03:59;0.52;;;0.40;;
47025;SDS011;32783;51.756;-2.556;2023-04-15T05:06:25;0.50;;;0.50;;
47025;SDS011;32783;51.756;-2.556;2023-04-15T05:08:50;0.25;;;0.25;;
47025;SDS011;32783;51.756;-2.556;2023-04-15T05:11:16;0.20;;;0.20;;
47025;SDS011;32783;51.756;-2.556;2023-04-15T05:13:41;0.20;;;0.20;;
47025;SDS011;32783;51.756;-2.556;2023-04-15T05:16:07;0.40;;;0.30;;
47025;SDS011;32783;51.756;-2.556;2023-04-15T05:18:33;0.28;;;0.28;;
47025;SDS011;32783;51.756;-2.556;2023-04-15T05:20:58;0.93;;;0.60;;
47025;SDS011;32783;51.756;-2.556;2023-04-15T05:23:24;0.35;;;0.35;;
47025;SDS011;32783;51.756;-2.556;2023-04-15T05:25:50;0.55;;;0.40;;
47025;SDS011;32783;51.756;-2.556;2023-04-15T05:28:15;0.28;;;0.22;;
47025;SDS011;32783;51.756;-2.556;2023-04-15T05:30:41;0.40;;;0.30;;
47025;SDS011;32783;51.756;-2.556;2023-04-15T05:33:06;0.35;;;0.35;;
47025;SDS011;32783;51.756;-2.556;2023-04-15T05:35:31;0.20;;;0.20;;
47025;SDS011;32783;51.756;-2.556;2023-04-15T05:37:57;0.30;;;0.20;;
47025;SDS011;32783;51.756;-2.556;2023-04-15T05:40:22;0.30;;;0.30;;
47025;SDS011;32783;51.756;-2.556;2023-04-15T05:42:48;0.20;;;0.20;;
47025;SDS011;32783;51.756;-2.556;2023-04-15T05:45:13;2.08;;;0.43;;
47025;SDS011;32783;51.756;-2.556;2023-04-15T05:47:39;0.20;;;0.20;;
47025;SDS011;32783;51.756;-2.556;2023-04-15T05:50:04;0.65;;;0.30;;
47025;SDS011;32783;51.756;-2.556;2023-04-15T05:52:30;0.40;;;0.30;;
47025;SDS011;32783;51.756;-2.556;2023-04-15T05:54:56;0.30;;;0.22;;
47025;SDS011;32783;51.756;-2.556;2023-04-15T05:57:21;0.13;;;0.13;;
47025;SDS011;32783;51.756;-2.556;2023-04-15T05:59:47;2.53;;;0.57;;
47025;SDS011;32783;51.756;-2.556;2023-04-15T06:02:13;0.20;;;0.20;;
47025;SDS011;32783;51.756;-2.556;2023-04-15T06:04:38;0.57;;;0.28;;
47025;SDS011;32783;51.756;-2.556;2023-04-15T06:07:04;0.30;;;0.20;;
47025;SDS011;32783;51.756;-2.556;2023-04-15T06:09:29;0.20;;;0.20;;
47025;SDS011;32783;51.756;-2.556;2023-04-15T06:11:55;0.43;;;0.32;;
47025;SDS011;32783;51.756;-2.556;2023-04-15T06:14:21;0.50;;;0.30;;
47025;SDS011;32783;51.756;-2.556;2023-04-15T06:16:47;0.32;;;0.30;;
47025;SDS011;32783;51.756;-2.556;2023-04-15T06:19:12;1.25;;;0.30;;
47025;SDS011;32783;51.756;-2.556;2023-04-15T06:21:38;0.40;;;0.38;;
47025;SDS011;32783;51.756;-2.556;2023-04-15T06:24:04;0.20;;;0.20;;
47025;SDS011;32783;51.756;-2.556;2023-04-15T06:26:29;0.20;;;0.20;;
47025;SDS011;32783;51.756;-2.556;2023-04-15T06:28:55;0.20;;;0.20;;
47025;SDS011;32783;51.756;-2.556;2023-04-15T06:31:21;0.30;;;0.30;;
47025;SDS011;32783;51.756;-2.556;2023-04-15T06:33:46;0.65;;;0.32;;
47025;SDS011;32783;51.756;-2.556;2023-04-15T06:36:12;0.30;;;0.30;;
47025;SDS011;32783;51.756;-2.556;2023-04-15T06:38:37;0.30;;;0.20;;
47025;SDS011;32783;51.756;-2.556;2023-04-15T06:41:03;0.20;;;0.20;;
47025;SDS011;32783;51.756;-2.556;2023-04-15T06:43:29;0.28;;;0.20;;
47025;SDS011;32783;51.756;-2.556;2023-04-15T06:45:54;0.40;;;0.20;;
47025;SDS011;32783;51.756;-2.556;2023-04-15T06:48:20;0.20;;;0.20;;
47025;SDS011;32783;51.756;-2.556;2023-04-15T06:50:46;0.30;;;0.30;;
47025;SDS011;32783;51.756;-2.556;2023-04-15T06:53:12;0.30;;;0.30;;
47025;SDS011;32783;51.756;-2.556;2023-04-15T06:55:37;0.57;;;0.22;;
47025;SDS011;32783;51.756;-2.556;2023-04-15T06:58:03;0.20;;;0.20;;
47025;SDS011;32783;51.756;-2.556;2023-04-15T07:00:28;0.30;;;0.30;;
47025;SDS011;32783;51.756;-2.556;2023-04-15T07:02:54;0.35;;;0.25;;
47025;SDS011;32783;51.756;-2.556;2023-04-15T07:05:20;0.57;;;0.40;;
47025;SDS011;32783;51.756;-2.556;2023-04-15T07:07:45;0.73;;;0.20;;
47025;SDS011;32783;51.756;-2.556;2023-04-15T07:10:11;0.85;;;0.30;;
47025;SDS011;32783;51.756;-2.556;2023-04-15T07:12:36;0.20;;;0.20;;
47025;SDS011;32783;51.756;-2.556;2023-04-15T07:15:02;0.30;;;0.25;;
47025;SDS011;32783;51.756;-2.556;2023-04-15T07:17:28;0.55;;;0.50;;
47025;SDS011;32783;51.756;-2.556;2023-04-15T07:19:54;0.52;;;0.30;;
47025;SDS011;32783;51.756;-2.556;2023-04-15T07:22:19;0.85;;;0.38;;
47025;SDS011;32783;51.756;-2.556;2023-04-15T07:24:45;0.40;;;0.38;;
47025;SDS011;32783;51.756;-2.556;2023-04-15T07:27:10;0.30;;;0.30;;
47025;SDS011;32783;51.756;-2.556;2023-04-15T07:29:36;0.40;;;0.30;;
47025;SDS011;32783;51.756;-2.556;2023-04-15T07:32:01;0.57;;;0.30;;
47025;SDS011;32783;51.756;-2.556;2023-04-15T07:34:27;0.35;;;0.30;;
47025;SDS011;32783;51.756;-2.556;2023-04-15T07:36:52;0.30;;;0.30;;
47025;SDS011;32783;51.756;-2.556;2023-04-15T07:39:18;0.38;;;0.35;;
47025;SDS011;32783;51.756;-2.556;2023-04-15T07:41:43;0.55;;;0.32;;
47025;SDS011;32783;51.756;-2.556;2023-04-15T07:44:09;1.50;;;0.55;;
47025;SDS011;32783;51.756;-2.556;2023-04-15T07:46:35;0.77;;;0.55;;
47025;SDS011;32783;51.756;-2.556;2023-04-15T07:49:02;0.47;;;0.45;;
47025;SDS011;32783;51.756;-2.556;2023-04-15T07:51:27;2.13;;;0.60;;
47025;SDS011;32783;51.756;-2.556;2023-04-15T07:53:53;2.13;;;0.85;;
47025;SDS011;32783;51.756;-2.556;2023-04-15T07:56:19;0.60;;;0.50;;
47025;SDS011;32783;51.756;-2.556;2023-04-15T07:58:44;1.38;;;0.82;;
47025;SDS011;32783;51.756;-2.556;2023-04-15T08:01:10;0.50;;;0.50;;
47025;SDS011;32783;51.756;-2.556;2023-04-15T08:03:35;2.03;;;0.65;;
47025;SDS011;32783;51.756;-2.556;2023-04-15T08:06:01;0.90;;;0.70;;
47025;SDS011;32783;51.756;-2.556;2023-04-15T08:08:27;2.85;;;0.77;;
47025;SDS011;32783;51.756;-2.556;2023-04-15T08:10:52;2.55;;;1.15;;
47025;SDS011;32783;51.756;-2.556;2023-04-15T08:13:18;1.02;;;0.70;;
47025;SDS011;32783;51.756;-2.556;2023-04-15T08:15:43;2.00;;;1.00;;
47025;SDS011;32783;51.756;-2.556;2023-04-15T08:18:08;3.83;;;1.10;;
47025;SDS011;32783;51.756;-2.556;2023-04-15T08:20:34;1.67;;;0.90;;
47025;SDS011;32783;51.756;-2.556;2023-04-15T08:23:01;2.08;;;0.50;;
47025;SDS011;32783;51.756;-2.556;2023-04-15T08:25:27;1.58;;;1.00;;
47025;SDS011;32783;51.756;-2.556;2023-04-15T08:27:56;2.85;;;0.80;;
47025;SDS011;32783;51.756;-2.556;2023-04-15T08:30:22;4.70;;;0.95;;
47025;SDS011;32783;51.756;-2.556;2023-04-15T08:32:48;4.53;;;0.95;;
47025;SDS011;32783;51.756;-2.556;2023-04-15T08:35:14;2.17;;;0.68;;
47025;SDS011;32783;51.756;-2.556;2023-04-15T08:37:39;1.35;;;0.73;;
47025;SDS011;32783;51.756;-2.556;2023-04-15T08:40:05;3.85;;;0.93;;
47025;SDS011;32783;51.756;-2.556;2023-04-15T08:42:35;6.68;;;1.20;;
47025;SDS011;32783;51.756;-2.556;2023-04-15T08:47:28;2.25;;;0.90;;
47025;SDS011;32783;51.756;-2.556;2023-04-15T08:49:55;4.63;;;0.98;;
47025;SDS011;32783;51.756;-2.556;2023-04-15T08:52:23;3.13;;;0.90;;
47025;SDS011;32783;51.756;-2.556;2023-04-15T08:54:50;4.95;;;1.10;;
47025;SDS011;32783;51.756;-2.556;2023-04-15T08:57:18;2.67;;;0.77;;
47025;SDS011;32783;51.756;-2.556;2023-04-15T08:59:43;1.67;;;0.80;;
47025;SDS011;32783;51.756;-2.556;2023-04-15T09:02:10;2.40;;;0.75;;
47025;SDS011;32783;51.756;-2.556;2023-04-15T09:04:35;1.85;;;0.80;;
47025;SDS011;32783;51.756;-2.556;2023-04-15T09:07:01;2.63;;;0.80;;
47025;SDS011;32783;51.756;-2.556;2023-04-15T09:09:26;5.40;;;0.90;;
47025;SDS011;32783;51.756;-2.556;2023-04-15T09:11:52;4.13;;;0.88;;
47025;SDS011;32783;51.756;-2.556;2023-04-15T09:14:17;3.13;;;0.77;;
47025;SDS011;32783;51.756;-2.556;2023-04-15T09:17:01;2.00;;;0.70;;
47025;SDS011;32783;51.756;-2.556;2023-04-15T09:19:28;2.85;;;1.02;;
47025;SDS011;32783;51.756;-2.556;2023-04-15T09:21:55;2.60;;;0.88;;
47025;SDS011;32783;51.756;-2.556;2023-04-15T09:24:22;1.92;;;0.65;;
47025;SDS011;32783;51.756;-2.556;2023-04-15T09:26:47;3.60;;;1.33;;
47025;SDS011;32783;51.756;-2.556;2023-04-15T09:29:16;1.85;;;0.82;;
47025;SDS011;32783;51.756;-2.556;2023-04-15T09:31:42;1.00;;;0.70;;
47025;SDS011;32783;51.756;-2.556;2023-04-15T09:34:08;1.65;;;0.68;;
47025;SDS011;32783;51.756;-2.556;2023-04-15T09:39:12;5.13;;;1.42;;
47025;SDS011;32783;51.756;-2.556;2023-04-15T09:41:38;5.10;;;0.77;;
47025;SDS011;32783;51.756;-2.556;2023-04-15T09:44:03;2.78;;;0.90;;
47025;SDS011;32783;51.756;-2.556;2023-04-15T09:46:42;7.97;;;2.45;;
47025;SDS011;32783;51.756;-2.556;2023-04-15T09:49:08;2.20;;;0.70;;
47025;SDS011;32783;51.756;-2.556;2023-04-15T09:51:35;1.33;;;0.85;;
47025;SDS011;32783;51.756;-2.556;2023-04-15T09:54:00;5.78;;;1.35;;
47025;SDS011;32783;51.756;-2.556;2023-04-15T09:56:31;3.33;;;0.90;;
47025;SDS011;32783;51.756;-2.556;2023-04-15T09:58:58;7.95;;;1.38;;
47025;SDS011;32783;51.756;-2.556;2023-04-15T10:01:24;4.15;;;1.55;;
47025;SDS011;32783;51.756;-2.556;2023-04-15T10:03:49;2.30;;;0.70;;
47025;SDS011;32783;51.756;-2.556;2023-04-15T10:06:16;4.20;;;1.10;;
47025;SDS011;32783;51.756;-2.556;2023-04-15T10:08:42;4.30;;;1.58;;
47025;SDS011;32783;51.756;-2.556;2023-04-15T10:11:07;9.45;;;1.20;;
47025;SDS011;32783;51.756;-2.556;2023-04-15T10:13:33;6.13;;;1.67;;
47025;SDS011;32783;51.756;-2.556;2023-04-15T10:16:11;4.90;;;1.05;;
47025;SDS011;32783;51.756;-2.556;2023-04-15T10:18:45;13.25;;;1.60;;
47025;SDS011;32783;51.756;-2.556;2023-04-15T10:21:12;7.65;;;1.08;;
47025;SDS011;32783;51.756;-2.556;2023-04-15T10:23:38;4.75;;;0.88;;
47025;SDS011;32783;51.756;-2.556;2023-04-15T10:26:04;5.47;;;1.10;;
47025;SDS011;32783;51.756;-2.556;2023-04-15T10:28:30;22.27;;;3.50;;
47025;SDS011;32783;51.756;-2.556;2023-04-15T10:30:56;10.95;;;2.05;;
47025;SDS011;32783;51.756;-2.556;2023-04-15T10:33:22;10.32;;;1.52;;
47025;SDS011;32783;51.756;-2.556;2023-04-15T10:35:49;26.08;;;4.30;;
47025;SDS011;32783;51.756;-2.556;2023-04-15T10:43:53;9.68;;;1.50;;
47025;SDS011;32783;51.756;-2.556;2023-04-15T10:46:35;9.70;;;1.50;;
47025;SDS011;32783;51.756;-2.556;2023-04-15T10:49:45;11.70;;;1.90;;
47025;SDS011;32783;51.756;-2.556;2023-04-15T10:51:51;12.20;;;2.05;;
47025;SDS011;32783;51.756;-2.556;2023-04-15T10:57:08;10.90;;;1.58;;
47025;SDS011;32783;51.756;-2.556;2023-04-15T11:02:37;9.82;;;1.80;;
47025;SDS011;32783;51.756;-2.556;2023-04-15T11:05:02;14.25;;;1.58;;
47025;SDS011;32783;51.756;-2.556;2023-04-15T11:12:41;5.68;;;1.10;;
47025;SDS011;32783;51.756;-2.556;2023-04-15T11:17:56;8.43;;;2.08;;
47025;SDS011;32783;51.756;-2.556;2023-04-15T11:20:22;8.35;;;2.67;;
47025;SDS011;32783;51.756;-2.556;2023-04-15T11:22:48;7.45;;;1.30;;
47025;SDS011;32783;51.756;-2.556;2023-04-15T11:25:24;6.45;;;1.38;;
47025;SDS011;32783;51.756;-2.556;2023-04-15T11:27:51;7.00;;;1.30;;
47025;SDS011;32783;51.756;-2.556;2023-04-15T11:30:20;3.60;;;1.52;;
47025;SDS011;32783;51.756;-2.556;2023-04-15T11:32:47;7.80;;;1.40;;
47025;SDS011;32783;51.756;-2.556;2023-04-15T11:35:13;6.28;;;1.52;;
47025;SDS011;32783;51.756;-2.556;2023-04-15T11:37:40;10.38;;;1.55;;
47025;SDS011;32783;51.756;-2.556;2023-04-15T11:40:06;9.55;;;1.25;;
47025;SDS011;32783;51.756;-2.556;2023-04-15T11:42:32;8.55;;;2.22;;
47025;SDS011;32783;51.756;-2.556;2023-04-15T11:45:07;5.72;;;1.10;;
47025;SDS011;32783;51.756;-2.556;2023-04-15T11:47:34;8.52;;;1.50;;
47025;SDS011;32783;51.756;-2.556;2023-04-15T11:55:19;9.38;;;1.38;;
47025;SDS011;32783;51.756;-2.556;2023-04-15T11:57:44;9.63;;;1.42;;
47025;SDS011;32783;51.756;-2.556;2023-04-15T12:00:10;18.70;;;2.78;;
47025;SDS011;32783;51.756;-2.556;2023-04-15T12:02:38;9.15;;;1.40;;
47025;SDS011;32783;51.756;-2.556;2023-04-15T12:05:06;3.63;;;1.17;;
47025;SDS011;32783;51.756;-2.556;2023-04-15T12:07:32;6.30;;;1.50;;
47025;SDS011;32783;51.756;-2.556;2023-04-15T12:09:58;10.50;;;3.50;;
47025;SDS011;32783;51.756;-2.556;2023-04-15T12:12:27;17.77;;;4.72;;
47025;SDS011;32783;51.756;-2.556;2023-04-15T12:14:53;15.20;;;4.70;;
47025;SDS011;32783;51.756;-2.556;2023-04-15T12:17:21;14.57;;;4.22;;
47025;SDS011;32783;51.756;-2.556;2023-04-15T12:19:47;10.98;;;3.35;;
47025;SDS011;32783;51.756;-2.556;2023-04-15T12:22:15;12.77;;;3.17;;
47025;SDS011;32783;51.756;-2.556;2023-04-15T12:24:41;8.52;;;3.10;;
47025;SDS011;32783;51.756;-2.556;2023-04-15T12:27:13;10.35;;;3.50;;
47025;SDS011;32783;51.756;-2.556;2023-04-15T12:29:39;13.63;;;3.10;;
47025;SDS011;32783;51.756;-2.556;2023-04-15T12:34:38;9.75;;;3.00;;
47025;SDS011;32783;51.756;-2.556;2023-04-15T12:37:05;5.20;;;1.70;;
47025;SDS011;32783;51.756;-2.556;2023-04-15T12:39:43;4.38;;;1.63;;
47025;SDS011;32783;51.756;-2.556;2023-04-15T12:42:09;5.22;;;1.70;;
47025;SDS011;32783;51.756;-2.556;2023-04-15T12:44:35;5.50;;;2.03;;
47025;SDS011;32783;51.756;-2.556;2023-04-15T12:47:02;9.05;;;3.25;;
47025;SDS011;32783;51.756;-2.556;2023-04-15T12:49:28;6.03;;;1.77;;
47025;SDS011;32783;51.756;-2.556;2023-04-15T12:51:57;11.18;;;2.33;;
47025;SDS011;32783;51.756;-2.556;2023-04-15T12:54:27;4.32;;;1.60;;
47025;SDS011;32783;51.756;-2.556;2023-04-15T12:56:53;7.38;;;2.30;;
47025;SDS011;32783;51.756;-2.556;2023-04-15T12:59:19;6.20;;;2.05;;
47025;SDS011;32783;51.756;-2.556;2023-04-15T13:01:45;4.30;;;1.52;;
47025;SDS011;32783;51.756;-2.556;2023-04-15T13:04:11;4.35;;;1.60;;
47025;SDS011;32783;51.756;-2.556;2023-04-15T13:06:37;3.95;;;1.33;;
47025;SDS011;32783;51.756;-2.556;2023-04-15T13:09:02;6.40;;;1.73;;
47025;SDS011;32783;51.756;-2.556;2023-04-15T13:11:28;4.50;;;1.27;;
47025;SDS011;32783;51.756;-2.556;2023-04-15T13:14:01;3.65;;;1.48;;
47025;SDS011;32783;51.756;-2.556;2023-04-15T13:16:28;3.75;;;1.90;;
47025;SDS011;32783;51.756;-2.556;2023-04-15T13:18:55;3.83;;;1.60;;
47025;SDS011;32783;51.756;-2.556;2023-04-15T13:21:21;3.13;;;1.58;;
47025;SDS011;32783;51.756;-2.556;2023-04-15T13:23:47;5.38;;;1.77;;
47025;SDS011;32783;51.756;-2.556;2023-04-15T13:26:14;4.78;;;1.30;;
47025;SDS011;32783;51.756;-2.556;2023-04-15T13:28:40;4.63;;;1.50;;
47025;SDS011;32783;51.756;-2.556;2023-04-15T13:31:05;3.75;;;1.40;;
47025;SDS011;32783;51.756;-2.556;2023-04-15T13:33:31;4.60;;;1.80;;
47025;SDS011;32783;51.756;-2.556;2023-04-15T13:35:56;4.88;;;1.80;;
47025;SDS011;32783;51.756;-2.556;2023-04-15T13:38:22;5.22;;;1.92;;
47025;SDS011;32783;51.756;-2.556;2023-04-15T13:40:50;3.15;;;1.40;;
47025;SDS011;32783;51.756;-2.556;2023-04-15T13:43:15;5.28;;;1.40;;
47025;SDS011;32783;51.756;-2.556;2023-04-15T13:45:41;4.68;;;1.20;;
47025;SDS011;32783;51.756;-2.556;2023-04-15T13:48:07;9.80;;;2.40;;
47025;SDS011;32783;51.756;-2.556;2023-04-15T13:50:33;5.47;;;1.63;;
47025;SDS011;32783;51.756;-2.556;2023-04-15T13:52:58;4.45;;;1.35;;
47025;SDS011;32783;51.756;-2.556;2023-04-15T13:55:23;3.13;;;1.15;;
47025;SDS011;32783;51.756;-2.556;2023-04-15T13:57:50;2.15;;;0.93;;
47025;SDS011;32783;51.756;-2.556;2023-04-15T14:00:15;2.72;;;1.10;;
47025;SDS011;32783;51.756;-2.556;2023-04-15T14:02:41;3.40;;;1.42;;
47025;SDS011;32783;51.756;-2.556;2023-04-15T14:05:06;2.80;;;0.90;;
47025;SDS011;32783;51.756;-2.556;2023-04-15T14:07:32;6.45;;;1.42;;
47025;SDS011;32783;51.756;-2.556;2023-04-15T14:09:58;4.97;;;1.30;;
47025;SDS011;32783;51.756;-2.556;2023-04-15T14:12:24;7.03;;;1.73;;
47025;SDS011;32783;51.756;-2.556;2023-04-15T14:14:49;3.90;;;1.88;;
47025;SDS011;32783;51.756;-2.556;2023-04-15T14:17:14;5.93;;;1.17;;
47025;SDS011;32783;51.756;-2.556;2023-04-15T14:19:40;8.60;;;1.65;;
47025;SDS011;32783;51.756;-2.556;2023-04-15T14:22:05;4.93;;;1.40;;
47025;SDS011;32783;51.756;-2.556;2023-04-15T14:24:31;4.32;;;0.90;;
47025;SDS011;32783;51.756;-2.556;2023-04-15T14:26:57;5.22;;;1.58;;
47025;SDS011;32783;51.756;-2.556;2023-04-15T14:29:22;5.18;;;0.98;;
47025;SDS011;32783;51.756;-2.556;2023-04-15T14:31:48;7.53;;;1.33;;
47025;SDS011;32783;51.756;-2.556;2023-04-15T14:34:14;3.72;;;1.00;;
47025;SDS011;32783;51.756;-2.556;2023-04-15T14:36:40;9.95;;;1.42;;
47025;SDS011;32783;51.756;-2.556;2023-04-15T14:39:06;5.53;;;1.50;;
47025;SDS011;32783;51.756;-2.556;2023-04-15T14:41:32;8.98;;;1.77;;
47025;SDS011;32783;51.756;-2.556;2023-04-15T14:43:57;10.45;;;1.73;;
47025;SDS011;32783;51.756;-2.556;2023-04-15T14:46:22;4.30;;;1.25;;
47025;SDS011;32783;51.756;-2.556;2023-04-15T14:48:48;8.27;;;1.40;;
47025;SDS011;32783;51.756;-2.556;2023-04-15T14:51:13;12.07;;;2.20;;
47025;SDS011;32783;51.756;-2.556;2023-04-15T14:53:40;10.27;;;2.78;;
47025;SDS011;32783;51.756;-2.556;2023-04-15T14:56:05;3.85;;;0.95;;
47025;SDS011;32783;51.756;-2.556;2023-04-15T14:58:31;7.22;;;1.25;;